Time;durP1;ratioP1;P1;durP2;ratioP2;P2;SDS_P1;SDS_P2;PMS_P1;PMS_P2;Temp;Humidity;BMP_temperature;BMP_pressure;BME280_temperature;BME280_humidity;BME280_pressure;Samples;Min_cycle;Max_cycle;Signal;HPM_P1;HPM_P2
2023/09/19 00:00:35;;;;;;;9.13;2.13;;;14.70;99.90;;;;;;5007279;28;20091;-56
2023/09/19 00:03:01;;;;;;;10.13;2.10;;;14.60;99.90;;;;;;5007058;28;20053;-55
2023/09/19 00:05:29;;;;;;;8.07;2.13;;;14.60;99.90;;;;;;5004002;28;20046;-55
2023/09/19 00:07:58;;;;;;;11.38;2.55;;;14.60;99.90;;;;;;5006226;28;20806;-56
2023/09/19 00:10:30;;;;;;;12.05;2.00;;;14.60;99.90;;;;;;5006795;28;20095;-54
2023/09/19 00:13:00;;;;;;;10.38;2.10;;;14.60;99.90;;;;;;5006341;28;20045;-54
2023/09/19 00:15:30;;;;;;;9.75;2.75;;;14.50;99.90;;;;;;5006661;28;20049;-54
2023/09/19 00:17:56;;;;;;;13.55;2.83;;;14.50;99.90;;;;;;5002993;28;20385;-55
2023/09/19 00:20:25;;;;;;;8.80;2.53;;;14.50;99.90;;;;;;5006003;28;20045;-55
2023/09/19 00:22:54;;;;;;;8.35;2.65;;;14.40;99.90;;;;;;5005340;28;20168;-54
2023/09/19 00:25:20;;;;;;;13.38;2.30;;;14.40;99.90;;;;;;5002688;28;20041;-53
2023/09/19 00:27:49;;;;;;;9.93;2.45;;;14.40;99.90;;;;;;4993046;28;20477;-54
2023/09/19 00:30:19;;;;;;;8.57;1.92;;;14.40;99.90;;;;;;5017657;28;20531;-55
2023/09/19 00:32:47;;;;;;;12.38;2.53;;;14.50;99.90;;;;;;5004062;28;20086;-54
2023/09/19 00:35:16;;;;;;;5.60;1.90;;;14.50;99.90;;;;;;5007937;28;20048;-54
2023/09/19 00:37:42;;;;;;;11.30;2.03;;;14.50;99.90;;;;;;5004006;28;20041;-57
2023/09/19 00:40:11;;;;;;;9.43;2.10;;;14.50;99.90;;;;;;5005962;28;20033;-55
2023/09/19 00:42:41;;;;;;;8.77;2.58;;;14.50;99.90;;;;;;5003791;28;20044;-55
2023/09/19 00:45:11;;;;;;;10.73;2.20;;;14.50;99.90;;;;;;5003944;28;20129;-55
2023/09/19 00:47:51;;;;;;;8.75;2.50;;;14.50;99.90;;;;;;5003741;28;20693;-55
2023/09/19 00:50:19;;;;;;;11.90;2.63;;;14.50;99.90;;;;;;5005667;28;20464;-53
2023/09/19 00:52:47;;;;;;;5.53;1.95;;;14.40;99.90;;;;;;5003251;28;20106;-55
2023/09/19 00:55:15;;;;;;;13.15;2.30;;;14.40;99.90;;;;;;5004716;28;20132;-54
2023/09/19 00:57:42;;;;;;;12.88;2.45;;;14.40;99.90;;;;;;5005077;28;20536;-56
2023/09/19 01:00:12;;;;;;;14.95;2.20;;;14.40;99.90;;;;;;5003588;28;20042;-55
2023/09/19 01:02:37;;;;;;;10.07;2.13;;;14.30;99.90;;;;;;5004090;28;20224;-50
2023/09/19 01:05:05;;;;;;;10.57;2.13;;;14.30;99.90;;;;;;5006387;28;20046;-51
2023/09/19 01:07:35;;;;;;;9.80;2.33;;;14.20;99.90;;;;;;5001843;28;20038;-52
2023/09/19 01:10:05;;;;;;;8.52;2.00;;;14.20;99.90;;;;;;5003552;28;20132;-53
2023/09/19 01:12:51;;;;;;;10.45;2.70;;;14.20;99.90;;;;;;5002953;28;20049;-53
2023/09/19 01:15:28;;;;;;;11.25;2.53;;;14.10;99.90;;;;;;4990087;28;20077;-55
2023/09/19 01:18:16;;;;;;;7.53;2.08;;;14.10;99.90;;;;;;5005132;28;20135;-52
2023/09/19 01:20:53;;;;;;;8.75;1.98;;;14.10;99.90;;;;;;5002979;28;20869;-53
2023/09/19 01:23:41;;;;;;;10.50;2.30;;;14.00;99.90;;;;;;5004416;28;20084;-54
2023/09/19 01:26:25;;;;;;;11.57;2.70;;;14.00;99.90;;;;;;5000148;28;20076;-52
2023/09/19 01:29:15;;;;;;;13.73;2.22;;;13.90;99.90;;;;;;5001305;28;20172;-53
2023/09/19 01:31:44;;;;;;;14.55;2.65;;;13.90;99.90;;;;;;5000604;28;20601;-53
2023/09/19 01:34:09;;;;;;;12.05;2.65;;;13.90;99.90;;;;;;5001877;28;20077;-52
2023/09/19 01:36:38;;;;;;;11.07;2.28;;;13.80;99.90;;;;;;4991853;28;20409;-54
2023/09/19 01:39:15;;;;;;;9.30;2.60;;;13.80;99.90;;;;;;4994131;28;20033;-53
2023/09/19 01:42:22;;;;;;;8.02;2.38;;;13.80;99.90;;;;;;5000038;28;23950;-55
2023/09/19 01:44:48;;;;;;;5.32;1.70;;;13.80;99.90;;;;;;5000228;28;20188;-53
2023/09/19 01:47:47;;;;;;;10.13;2.03;;;13.80;99.90;;;;;;5003489;28;20485;-52
2023/09/19 01:50:40;;;;;;;11.52;2.90;;;13.70;99.90;;;;;;5004890;28;20038;-54
2023/09/19 01:53:30;;;;;;;9.63;2.00;;;13.70;99.90;;;;;;5005173;28;20176;-53
2023/09/19 01:55:57;;;;;;;9.00;2.47;;;13.70;99.90;;;;;;5003806;28;20045;-53
2023/09/19 01:58:32;;;;;;;9.98;2.40;;;13.70;99.90;;;;;;5002105;28;20075;-54
2023/09/19 02:01:00;;;;;;;6.10;2.15;;;13.60;99.90;;;;;;4989664;28;20081;-53
2023/09/19 02:03:28;;;;;;;10.35;2.20;;;13.60;99.90;;;;;;5004069;28;20045;-52
2023/09/19 02:05:55;;;;;;;6.78;1.80;;;13.60;99.90;;;;;;5002855;28;20655;-53
2023/09/19 02:08:25;;;;;;;10.32;2.38;;;13.60;99.90;;;;;;5005333;28;20475;-53
2023/09/19 02:10:52;;;;;;;7.30;2.22;;;13.50;99.90;;;;;;4997792;28;20053;-53
2023/09/19 02:13:24;;;;;;;9.27;2.10;;;13.50;99.90;;;;;;5003165;28;20505;-53
2023/09/19 02:15:50;;;;;;;10.20;2.08;;;13.50;99.90;;;;;;5002430;28;20045;-54
2023/09/19 02:18:16;;;;;;;11.52;2.30;;;13.40;99.90;;;;;;5005595;28;20056;-52
2023/09/19 02:20:43;;;;;;;10.65;2.72;;;13.40;99.90;;;;;;5002575;28;20042;-53
2023/09/19 02:23:10;;;;;;;12.68;3.22;;;13.40;99.90;;;;;;5004006;28;20077;-53
2023/09/19 02:25:35;;;;;;;11.07;2.67;;;13.40;99.90;;;;;;5001148;28;20041;-54
2023/09/19 02:28:03;;;;;;;8.65;3.00;;;13.30;99.90;;;;;;4999923;28;20689;-50
2023/09/19 02:30:29;;;;;;;13.23;3.88;;;13.30;99.90;;;;;;5004696;28;20387;-54
2023/09/19 02:32:55;;;;;;;9.45;3.92;;;13.30;99.90;;;;;;5001485;28;20041;-52
2023/09/19 02:35:22;;;;;;;10.55;3.70;;;13.20;99.90;;;;;;5002466;28;20042;-51
2023/09/19 02:37:48;;;;;;;8.82;3.03;;;13.20;99.90;;;;;;5009196;28;20076;-53
2023/09/19 02:40:25;;;;;;;10.60;3.22;;;13.20;99.90;;;;;;4983946;28;20509;-54
2023/09/19 02:42:55;;;;;;;11.13;3.03;;;13.20;99.90;;;;;;5004367;28;20461;-52
2023/09/19 02:45:23;;;;;;;7.60;3.20;;;13.20;99.90;;;;;;5004675;28;20396;-55
2023/09/19 02:47:49;;;;;;;11.27;2.97;;;13.20;99.90;;;;;;5006346;28;20049;-52
2023/09/19 02:50:15;;;;;;;12.38;3.00;;;13.10;99.90;;;;;;5005953;28;20413;-53
2023/09/19 02:52:47;;;;;;;8.13;2.38;;;13.10;99.90;;;;;;5005930;28;20042;-54
2023/09/19 02:55:19;;;;;;;9.73;2.20;;;13.10;99.90;;;;;;5007300;28;20041;-55
2023/09/19 02:57:49;;;;;;;11.65;1.83;;;13.10;99.90;;;;;;5005372;28;20056;-54
2023/09/19 03:00:21;;;;;;;9.32;2.33;;;13.10;99.90;;;;;;5006225;28;20045;-53
2023/09/19 03:02:52;;;;;;;9.13;1.83;;;13.10;99.90;;;;;;5004768;28;20049;-52
2023/09/19 03:05:20;;;;;;;6.63;2.20;;;13.10;99.90;;;;;;5006023;28;20118;-55
2023/09/19 03:07:50;;;;;;;8.30;2.10;;;13.00;99.90;;;;;;5018848;28;20037;-54
2023/09/19 03:10:17;;;;;;;9.05;2.50;;;13.00;99.90;;;;;;5009909;28;20121;-54
2023/09/19 03:12:43;;;;;;;9.27;2.75;;;13.00;99.90;;;;;;5000297;28;20045;-52
2023/09/19 03:15:09;;;;;;;12.68;3.08;;;13.00;99.90;;;;;;5004390;28;20580;-51
2023/09/19 03:17:35;;;;;;;9.55;2.58;;;13.00;99.90;;;;;;5008408;28;20670;-55
2023/09/19 03:20:03;;;;;;;9.90;2.53;;;13.00;99.90;;;;;;5004260;28;20049;-52
2023/09/19 03:22:28;;;;;;;10.25;1.73;;;13.00;99.90;;;;;;5007449;28;20536;-55
2023/09/19 03:24:54;;;;;;;8.35;2.22;;;13.00;99.90;;;;;;5005910;28;20046;-53
2023/09/19 03:27:20;;;;;;;12.80;2.50;;;12.90;99.90;;;;;;5016070;28;20052;-52
2023/09/19 03:29:47;;;;;;;10.23;2.22;;;12.90;99.90;;;;;;5005606;28;20149;-50
2023/09/19 03:32:12;;;;;;;6.50;2.33;;;12.90;99.90;;;;;;5005246;28;20115;-55
2023/09/19 03:34:42;;;;;;;11.95;2.92;;;12.90;99.90;;;;;;5005914;28;20049;-53
2023/09/19 03:37:09;;;;;;;7.18;3.13;;;12.90;99.90;;;;;;5019703;28;20783;-51
2023/09/19 03:39:35;;;;;;;12.93;3.92;;;12.90;99.90;;;;;;5005228;28;20065;-53
2023/09/19 03:42:06;;;;;;;16.50;4.07;;;12.80;99.90;;;;;;4992740;28;20126;-54
2023/09/19 03:44:32;;;;;;;8.65;3.00;;;12.80;99.90;;;;;;5009166;28;20042;-54
2023/09/19 03:46:58;;;;;;;7.85;2.22;;;12.80;99.90;;;;;;4994166;28;20072;-56
2023/09/19 03:49:24;;;;;;;14.65;3.38;;;12.80;99.90;;;;;;5004324;28;20069;-56
2023/09/19 03:51:50;;;;;;;9.65;3.05;;;12.80;99.90;;;;;;5005028;28;20037;-53
2023/09/19 03:54:16;;;;;;;10.82;3.05;;;12.70;99.90;;;;;;5002417;28;20046;-54
2023/09/19 03:56:43;;;;;;;10.82;2.30;;;12.80;99.90;;;;;;5006392;28;20512;-54
2023/09/19 03:59:09;;;;;;;7.53;2.40;;;12.70;99.90;;;;;;5008835;28;20041;-54
2023/09/19 04:01:35;;;;;;;11.13;3.33;;;12.70;99.90;;;;;;5004168;28;20038;-54
2023/09/19 04:04:08;;;;;;;9.98;3.50;;;12.70;99.90;;;;;;5005541;28;20042;-52
2023/09/19 04:06:36;;;;;;;9.15;3.28;;;12.70;99.90;;;;;;5004753;28;21149;-51
2023/09/19 04:09:03;;;;;;;10.73;2.42;;;12.80;99.90;;;;;;5007484;28;20041;-52
2023/09/19 04:11:30;;;;;;;6.97;2.22;;;12.80;99.90;;;;;;5007696;28;20065;-52
2023/09/19 04:13:57;;;;;;;10.73;2.10;;;12.80;99.90;;;;;;5007123;28;20665;-54
2023/09/19 04:16:22;;;;;;;12.95;2.65;;;12.80;99.90;;;;;;4990991;28;20492;-51
2023/09/19 04:18:48;;;;;;;7.97;2.70;;;12.90;99.90;;;;;;5004874;28;20046;-54
2023/09/19 04:21:14;;;;;;;11.05;2.35;;;12.90;99.90;;;;;;5004964;28;20923;-51
2023/09/19 04:23:40;;;;;;;14.00;2.97;;;12.90;99.90;;;;;;5004518;28;20417;-53
2023/09/19 04:26:05;;;;;;;13.85;3.83;;;12.90;99.90;;;;;;5004116;28;20069;-53
2023/09/19 04:28:34;;;;;;;8.88;3.70;;;12.90;99.90;;;;;;5002146;28;20555;-55
2023/09/19 04:31:02;;;;;;;11.52;2.85;;;12.90;99.90;;;;;;5005817;28;20057;-55
2023/09/19 04:33:28;;;;;;;14.60;3.40;;;13.00;99.90;;;;;;5004324;28;20049;-53
2023/09/19 04:35:54;;;;;;;12.55;3.88;;;13.00;99.90;;;;;;5003916;28;20142;-53
2023/09/19 04:38:20;;;;;;;9.52;2.85;;;13.00;99.90;;;;;;5006978;28;20067;-53
2023/09/19 04:40:47;;;;;;;9.95;1.92;;;13.00;99.90;;;;;;5004095;28;20045;-51
2023/09/19 04:43:12;;;;;;;8.38;2.17;;;13.00;99.90;;;;;;5001381;28;20056;-52
2023/09/19 04:45:40;;;;;;;11.07;2.33;;;13.10;99.90;;;;;;5000335;28;20030;-52
2023/09/19 04:48:06;;;;;;;9.27;2.70;;;13.00;99.90;;;;;;4994716;28;20138;-56
2023/09/19 04:50:34;;;;;;;7.80;2.05;;;13.00;99.90;;;;;;5014790;28;20632;-55
2023/09/19 04:53:00;;;;;;;8.82;2.25;;;13.10;99.90;;;;;;5000495;28;23846;-51
2023/09/19 04:55:26;;;;;;;8.10;2.28;;;13.00;99.90;;;;;;4998704;28;20121;-52
2023/09/19 04:57:53;;;;;;;10.93;2.63;;;13.10;99.90;;;;;;5001957;28;20041;-55
2023/09/19 05:00:30;;;;;;;14.23;3.13;;;13.10;99.90;;;;;;5006732;28;20064;-53
2023/09/19 05:02:57;;;;;;;9.65;3.53;;;13.10;99.90;;;;;;4998914;28;20045;-53
2023/09/19 05:05:23;;;;;;;17.45;3.13;;;13.10;99.90;;;;;;5002725;28;20451;-54
2023/09/19 05:07:51;;;;;;;11.10;2.10;;;13.10;99.90;;;;;;5003822;28;20725;-54
2023/09/19 05:10:18;;;;;;;9.75;2.05;;;13.10;99.90;;;;;;4999802;28;20045;-53
2023/09/19 05:12:48;;;;;;;9.18;2.50;;;13.10;99.90;;;;;;5000973;28;20045;-51
2023/09/19 05:15:14;;;;;;;8.65;2.10;;;13.10;99.90;;;;;;5001942;28;20053;-55
2023/09/19 05:17:40;;;;;;;6.88;2.13;;;13.10;99.90;;;;;;5004814;28;20673;-52
2023/09/19 05:20:16;;;;;;;10.50;2.20;;;13.10;99.90;;;;;;4999180;28;20049;-52
2023/09/19 05:22:43;;;;;;;9.52;2.35;;;13.10;99.90;;;;;;4998610;28;20374;-54
2023/09/19 05:25:10;;;;;;;11.20;2.78;;;13.10;99.90;;;;;;4997764;28;20149;-55
2023/09/19 05:27:36;;;;;;;10.13;3.35;;;13.10;99.90;;;;;;5001567;28;20046;-55
2023/09/19 05:30:01;;;;;;;10.25;3.17;;;13.10;99.90;;;;;;5003663;28;20099;-55
2023/09/19 05:32:27;;;;;;;13.52;3.30;;;13.20;99.90;;;;;;5004539;28;20038;-52
2023/09/19 05:34:53;;;;;;;10.90;3.38;;;13.20;99.90;;;;;;5002152;28;20520;-53
2023/09/19 05:37:19;;;;;;;13.45;3.97;;;13.20;99.90;;;;;;5002707;28;20054;-55
2023/09/19 05:39:45;;;;;;;10.93;4.18;;;13.20;99.90;;;;;;5008548;28;20493;-52
2023/09/19 05:42:11;;;;;;;11.55;3.70;;;13.20;99.90;;;;;;5003188;28;20110;-54
2023/09/19 05:44:37;;;;;;;11.02;4.07;;;13.30;99.90;;;;;;5011404;28;20046;-54
2023/09/19 05:47:08;;;;;;;12.40;3.38;;;13.30;99.90;;;;;;5006702;28;20532;-55
2023/09/19 05:49:38;;;;;;;13.97;4.17;;;13.30;99.90;;;;;;5006304;28;20050;-55
2023/09/19 05:52:05;;;;;;;10.40;3.88;;;13.30;99.90;;;;;;5012226;28;20512;-55
2023/09/19 05:54:31;;;;;;;10.15;3.00;;;13.40;99.90;;;;;;5011563;28;20160;-54
2023/09/19 05:56:57;;;;;;;9.65;2.80;;;13.40;99.90;;;;;;5012204;28;20049;-53
2023/09/19 05:59:23;;;;;;;15.43;2.65;;;13.40;99.90;;;;;;5012314;28;20075;-55
2023/09/19 06:01:49;;;;;;;10.82;2.75;;;13.40;99.90;;;;;;5003224;28;20045;-53
2023/09/19 06:04:15;;;;;;;12.18;2.72;;;13.40;99.90;;;;;;5005808;28;20504;-56
2023/09/19 06:06:41;;;;;;;10.82;2.45;;;13.50;99.90;;;;;;5006749;28;20037;-54
2023/09/19 06:09:10;;;;;;;14.88;2.80;;;13.50;99.90;;;;;;4989887;28;20128;-58
2023/09/19 06:11:36;;;;;;;9.40;2.72;;;13.50;99.90;;;;;;5004136;28;20501;-59
2023/09/19 06:14:04;;;;;;;8.43;2.28;;;13.50;99.90;;;;;;5008562;28;20107;-59
2023/09/19 06:16:33;;;;;;;10.35;2.85;;;13.60;99.90;;;;;;5024758;28;20057;-59
2023/09/19 06:19:02;;;;;;;10.40;2.80;;;13.60;99.90;;;;;;5005641;28;20053;-58
2023/09/19 06:21:28;;;;;;;12.25;3.50;;;13.60;99.90;;;;;;5002419;28;20562;-58
2023/09/19 06:23:54;;;;;;;11.13;3.13;;;13.60;99.90;;;;;;4995622;28;20564;-57
2023/09/19 06:26:20;;;;;;;14.05;3.20;;;13.70;99.90;;;;;;5008501;28;20052;-58
2023/09/19 06:28:45;;;;;;;10.43;4.28;;;13.70;99.90;;;;;;5006158;28;20860;-57
2023/09/19 06:31:12;;;;;;;14.15;3.72;;;13.70;99.90;;;;;;5010409;28;20562;-59
2023/09/19 06:33:39;;;;;;;14.15;5.20;;;13.70;99.90;;;;;;5012922;28;20042;-60
2023/09/19 06:36:06;;;;;;;10.90;4.55;;;13.70;99.90;;;;;;5014877;28;20528;-58
2023/09/19 06:38:34;;;;;;;11.95;3.38;;;13.80;99.90;;;;;;5010940;28;20045;-57
2023/09/19 06:41:01;;;;;;;12.02;3.00;;;13.80;99.90;;;;;;5011394;28;20136;-59
2023/09/19 06:43:27;;;;;;;11.35;2.53;;;13.80;99.90;;;;;;5011051;28;20046;-59
2023/09/19 06:45:54;;;;;;;12.15;3.63;;;13.90;99.90;;;;;;5011755;28;20049;-59
2023/09/19 06:48:21;;;;;;;10.68;3.60;;;13.90;99.90;;;;;;5013746;28;21097;-59
2023/09/19 06:50:48;;;;;;;14.13;3.35;;;13.90;99.90;;;;;;5013190;28;20041;-58
2023/09/19 06:53:14;;;;;;;8.13;3.00;;;14.00;99.90;;;;;;5011851;28;20053;-58
2023/09/19 06:55:40;;;;;;;9.65;3.10;;;14.00;99.90;;;;;;5020503;28;20051;-59
2023/09/19 06:58:06;;;;;;;11.07;2.80;;;14.10;99.90;;;;;;5013761;28;20550;-60
2023/09/19 07:00:33;;;;;;;14.02;2.90;;;14.10;99.90;;;;;;5013435;28;20037;-59
2023/09/19 07:03:13;;;;;;;12.90;3.33;;;14.20;99.90;;;;;;5015603;28;20052;-58
2023/09/19 07:05:39;;;;;;;13.65;3.47;;;14.20;99.90;;;;;;5015224;28;20033;-59
2023/09/19 07:08:12;;;;;;;15.20;3.55;;;14.20;99.90;;;;;;5011225;28;20038;-58
2023/09/19 07:10:48;;;;;;;12.00;3.35;;;14.30;99.90;;;;;;5011870;28;20420;-59
2023/09/19 07:13:16;;;;;;;10.32;3.38;;;14.40;99.90;;;;;;5011341;28;20056;-59
2023/09/19 07:15:46;;;;;;;13.07;3.00;;;14.40;99.90;;;;;;5010481;28;20046;-59
2023/09/19 07:18:14;;;;;;;11.73;2.95;;;14.40;99.90;;;;;;5015600;28;20065;-59
2023/09/19 07:20:45;;;;;;;11.50;2.30;;;14.50;99.90;;;;;;5012107;28;20097;-59
2023/09/19 07:23:13;;;;;;;16.25;2.63;;;14.50;99.90;;;;;;5013078;28;20116;-58
2023/09/19 07:25:39;;;;;;;9.95;2.47;;;14.60;99.90;;;;;;5002723;28;20052;-58
2023/09/19 07:28:05;;;;;;;7.55;2.65;;;14.60;99.90;;;;;;5011581;28;20092;-60
2023/09/19 07:30:31;;;;;;;11.73;2.75;;;14.70;99.90;;;;;;5011738;28;22965;-59
2023/09/19 07:32:57;;;;;;;12.07;2.70;;;14.70;99.90;;;;;;5015103;28;20085;-57
2023/09/19 07:35:23;;;;;;;13.38;3.03;;;14.70;99.90;;;;;;5013355;28;20040;-59
2023/09/19 07:37:51;;;;;;;9.50;1.92;;;14.80;99.90;;;;;;5011833;28;20044;-58
2023/09/19 07:40:17;;;;;;;9.02;2.90;;;14.80;99.90;;;;;;5015291;28;20065;-59
2023/09/19 07:42:44;;;;;;;7.78;2.67;;;14.80;99.90;;;;;;5015139;28;20037;-60
2023/09/19 07:45:14;;;;;;;15.20;3.72;;;14.90;99.90;;;;;;5015002;28;20052;-58
2023/09/19 07:47:47;;;;;;;13.77;3.92;;;14.90;99.90;;;;;;5016455;28;20041;-58
2023/09/19 07:50:13;;;;;;;;;;;15.00;99.90;;;;;;4999035;28;20110;-59
2023/09/19 07:52:42;;;;;;;8.50;2.70;;;15.10;99.90;;;;;;5013540;28;19921;-57
2023/09/19 07:55:09;;;;;;;16.02;3.20;;;15.10;99.90;;;;;;5015869;28;20546;-59
2023/09/19 07:57:37;;;;;;;13.38;3.03;;;15.20;99.90;;;;;;5008252;28;20061;-58
2023/09/19 08:00:07;;;;;;;13.00;2.72;;;15.10;99.90;;;;;;5013225;28;20049;-60
2023/09/19 08:02:43;;;;;;;10.60;3.00;;;15.20;99.90;;;;;;5004509;28;20045;-58
2023/09/19 08:05:15;;;;;;;10.23;2.92;;;15.20;99.90;;;;;;5012122;28;20133;-54
2023/09/19 08:07:43;;;;;;;12.52;3.28;;;15.20;99.90;;;;;;5012622;28;20038;-59
2023/09/19 08:10:15;;;;;;;10.18;2.72;;;15.30;99.90;;;;;;4996751;28;20029;-58
2023/09/19 08:12:46;;;;;;;14.18;3.63;;;15.30;99.90;;;;;;5014656;28;20404;-59
2023/09/19 08:15:19;;;;;;;9.98;2.90;;;15.40;99.90;;;;;;5013390;28;20400;-59
2023/09/19 08:17:46;;;;;;;11.23;3.22;;;15.50;99.90;;;;;;5012794;28;20127;-59
2023/09/19 08:20:18;;;;;;;14.13;3.10;;;15.70;99.90;;;;;;5010799;28;20597;-58
2023/09/19 08:22:56;;;;;;;16.13;3.22;;;15.90;99.90;;;;;;5012911;28;20041;-58
2023/09/19 08:25:25;;;;;;;12.10;3.42;;;16.00;99.90;;;;;;5013453;28;20041;-59
2023/09/19 08:27:51;;;;;;;16.02;3.30;;;16.10;99.90;;;;;;4994682;28;20678;-57
2023/09/19 08:30:24;;;;;;;12.98;3.60;;;16.20;99.90;;;;;;5013275;28;20125;-58
2023/09/19 08:32:50;;;;;;;13.35;2.70;;;16.30;99.90;;;;;;5012434;28;20082;-58
2023/09/19 08:35:16;;;;;;;14.75;3.03;;;16.30;99.90;;;;;;5011631;28;20041;-59
2023/09/19 08:37:48;;;;;;;9.98;2.90;;;16.40;99.90;;;;;;5011787;28;20559;-60
2023/09/19 08:40:13;;;;;;;12.02;2.80;;;16.40;99.90;;;;;;5013536;28;20042;-58
2023/09/19 08:42:54;;;;;;;9.45;2.30;;;16.50;99.90;;;;;;5014340;28;20045;-58
2023/09/19 08:45:28;;;;;;;12.20;3.00;;;16.60;99.90;;;;;;5012199;28;20056;-58
2023/09/19 08:48:14;;;;;;;9.85;2.55;;;16.70;99.90;;;;;;4996235;28;20053;-60
2023/09/19 08:50:57;;;;;;;11.68;2.90;;;16.80;99.90;;;;;;5011663;28;20148;-60
2023/09/19 08:53:34;;;;;;;10.48;2.58;;;16.90;99.90;;;;;;5010781;28;20084;-59
2023/09/19 08:56:01;;;;;;;10.05;2.88;;;17.00;99.90;;;;;;4998926;28;20042;-59
2023/09/19 08:58:35;;;;;;;20.17;3.33;;;17.00;99.90;;;;;;5009975;28;20820;-59
2023/09/19 09:01:01;;;;;;;14.52;3.50;;;17.00;99.90;;;;;;5011046;28;20041;-59
2023/09/19 09:03:32;;;;;;;9.88;2.88;;;17.10;99.90;;;;;;5003895;28;20152;-58
2023/09/19 09:05:58;;;;;;;11.60;2.95;;;17.10;99.90;;;;;;5010632;28;20041;-59
2023/09/19 09:08:25;;;;;;;10.25;2.88;;;17.10;99.90;;;;;;4996278;28;20135;-60
2023/09/19 09:10:52;;;;;;;14.13;2.75;;;17.20;99.90;;;;;;5013964;28;20058;-59
2023/09/19 09:13:18;;;;;;;12.55;3.13;;;17.30;99.90;;;;;;5011103;28;20149;-59
2023/09/19 09:15:48;;;;;;;10.50;3.55;;;17.30;99.90;;;;;;5010263;28;20464;-59
2023/09/19 09:18:13;;;;;;;13.25;3.33;;;17.30;99.90;;;;;;5010907;28;20108;-58
2023/09/19 09:20:40;;;;;;;12.27;2.92;;;17.30;99.90;;;;;;5009378;28;20041;-59
2023/09/19 09:23:06;;;;;;;12.75;3.50;;;17.30;99.90;;;;;;5011878;28;20489;-59
2023/09/19 09:26:09;;;;;;;12.73;2.97;;;17.40;99.90;;;;;;5010959;28;20548;-59
2023/09/19 09:28:38;;;;;;;13.65;3.38;;;17.40;99.90;;;;;;4934992;28;20055;-58
2023/09/19 09:31:09;;;;;;;15.43;3.63;;;17.30;99.90;;;;;;4995309;28;20049;-60
2023/09/19 09:33:36;;;;;;;11.57;3.65;;;17.40;99.90;;;;;;5010791;28;20081;-60
2023/09/19 09:36:03;;;;;;;25.90;3.35;;;17.50;99.90;;;;;;5009098;28;20042;-60
2023/09/19 09:38:48;;;;;;;17.50;3.67;;;17.50;99.90;;;;;;5009195;28;20041;-59
2023/09/19 09:41:27;;;;;;;11.05;3.17;;;17.60;99.90;;;;;;5010427;28;20049;-58
2023/09/19 09:43:53;;;;;;;15.50;3.50;;;17.70;99.90;;;;;;5007644;28;20134;-60
2023/09/19 09:49:18;;;;;;;14.73;3.50;;;17.90;99.90;;;;;;5010444;28;20118;-60
2023/09/19 09:52:07;;;;;;;17.25;3.38;;;17.90;99.90;;;;;;5010477;28;20037;-58
2023/09/19 09:54:38;;;;;;;12.07;3.17;;;17.90;99.90;;;;;;5011256;28;20037;-59
2023/09/19 09:57:16;;;;;;;14.43;3.50;;;17.90;99.90;;;;;;5008849;28;20090;-60
2023/09/19 09:59:53;;;;;;;18.10;3.92;;;17.90;99.90;;;;;;5007811;28;20045;-58
2023/09/19 10:02:40;;;;;;;13.95;3.50;;;17.80;99.90;;;;;;5007135;28;20041;-60
2023/09/19 10:08:08;;;;;;;13.48;3.38;;;17.80;99.90;;;;;;4994638;28;20046;-59
2023/09/19 10:13:15;;;;;;;12.73;3.20;;;18.00;99.90;;;;;;5003826;28;20107;-60
2023/09/19 10:15:50;;;;;;;18.52;4.00;;;18.10;99.90;;;;;;5006457;28;20080;-58
2023/09/19 10:18:21;;;;;;;15.45;3.72;;;18.20;99.90;;;;;;5007249;28;20440;-59
2023/09/19 10:20:48;;;;;;;13.27;3.15;;;18.30;99.90;;;;;;5007489;28;20263;-60
2023/09/19 10:23:22;;;;;;;16.40;3.17;;;18.50;99.90;;;;;;5011021;28;20034;-58
2023/09/19 10:25:48;;;;;;;15.63;3.65;;;18.60;99.90;;;;;;5011126;28;20041;-59
2023/09/19 10:28:15;;;;;;;11.80;2.95;;;18.70;99.90;;;;;;5006068;28;20056;-60
2023/09/19 10:30:50;;;;;;;14.75;3.35;;;18.70;99.90;;;;;;5008494;28;20046;-57
2023/09/19 10:33:25;;;;;;;9.98;2.80;;;18.70;99.90;;;;;;4993692;28;20049;-59
2023/09/19 10:35:52;;;;;;;13.70;3.05;;;18.70;99.90;;;;;;4997003;28;20943;-58
2023/09/19 10:38:21;;;;;;;15.23;3.28;;;18.60;99.90;;;;;;4981130;28;20145;-59
2023/09/19 10:40:51;;;;;;;17.40;3.13;;;18.60;99.90;;;;;;4996723;28;20487;-58
2023/09/19 10:43:20;;;;;;;16.08;3.92;;;18.60;99.90;;;;;;5008484;28;20493;-59
2023/09/19 10:45:49;;;;;;;11.73;3.20;;;18.80;99.90;;;;;;5007229;28;20393;-58
2023/09/19 10:48:28;;;;;;;13.45;3.25;;;18.80;99.90;;;;;;5010900;28;20041;-59
2023/09/19 10:51:10;;;;;;;19.25;2.95;;;18.70;99.90;;;;;;5012987;28;20586;-58
2023/09/19 10:53:50;;;;;;;19.20;3.45;;;18.60;99.90;;;;;;5010856;28;21028;-59
2023/09/19 10:56:32;;;;;;;14.95;3.60;;;18.60;99.90;;;;;;5015235;28;20038;-59
2023/09/19 10:59:18;;;;;;;11.65;3.08;;;18.50;99.90;;;;;;5016583;28;20044;-61
2023/09/19 11:01:56;;;;;;;9.55;3.03;;;18.40;99.90;;;;;;5011021;28;20034;-59
2023/09/19 11:04:24;;;;;;;22.50;4.05;;;18.40;99.90;;;;;;4998222;28;20410;-60
2023/09/19 11:07:14;;;;;;;14.50;3.03;;;18.30;99.90;;;;;;4978971;28;20041;-58
2023/09/19 11:09:45;;;;;;;14.25;3.65;;;18.40;99.90;;;;;;5001007;28;20037;-59
2023/09/19 11:12:12;;;;;;;11.88;3.15;;;18.30;99.90;;;;;;5006743;28;20050;-59
2023/09/19 11:14:42;;;;;;;15.90;3.40;;;18.20;99.90;;;;;;5009424;28;20042;-59
2023/09/19 11:17:09;;;;;;;16.40;3.60;;;18.20;99.90;;;;;;5010500;28;20045;-59
2023/09/19 11:22:51;;;;;;;11.07;3.20;;;18.30;99.90;;;;;;5009374;28;20037;-59
2023/09/19 11:25:39;;;;;;;18.73;3.88;;;18.40;99.90;;;;;;5007688;28;20096;-59
2023/09/19 11:28:21;;;;;;;17.20;3.05;;;18.40;99.90;;;;;;5007376;28;20062;-58
2023/09/19 11:30:54;;;;;;;19.48;3.10;;;18.30;99.90;;;;;;5008153;28;20107;-59
2023/09/19 11:33:27;;;;;;;13.18;2.90;;;18.30;99.90;;;;;;5010065;28;20041;-60
2023/09/19 11:36:00;;;;;;;11.23;3.22;;;18.30;99.90;;;;;;5012650;28;20072;-59
2023/09/19 11:38:49;;;;;;;12.73;3.13;;;18.30;99.90;;;;;;5015442;28;20488;-60
2023/09/19 11:41:25;;;;;;;12.57;2.92;;;18.40;99.90;;;;;;5004789;28;20494;-59
2023/09/19 11:44:17;;;;;;;15.32;3.35;;;18.50;99.90;;;;;;5007221;28;20076;-59
2023/09/19 11:46:52;;;;;;;13.85;3.75;;;18.60;99.90;;;;;;5010132;28;20628;-60
2023/09/19 11:49:26;;;;;;;13.13;3.35;;;18.70;99.90;;;;;;5008345;28;20236;-60
2023/09/19 11:51:52;;;;;;;22.83;3.30;;;18.70;99.90;;;;;;4996452;28;20048;-60
2023/09/19 11:54:21;;;;;;;10.70;3.05;;;18.70;99.90;;;;;;5009522;28;20129;-58
2023/09/19 11:56:50;;;;;;;10.32;2.58;;;18.70;99.90;;;;;;5008301;28;20093;-58
2023/09/19 11:59:28;;;;;;;17.27;3.55;;;18.70;99.90;;;;;;5012265;28;20485;-58
2023/09/19 12:01:58;;;;;;;15.10;2.63;;;18.70;99.90;;;;;;5006372;28;20042;-59
2023/09/19 12:04:45;;;;;;;11.57;3.08;;;18.60;99.90;;;;;;5006453;28;20505;-57
2023/09/19 12:07:18;;;;;;;15.52;3.20;;;18.50;99.90;;;;;;5017306;28;20608;-58
2023/09/19 12:10:04;;;;;;;11.57;2.97;;;18.40;99.90;;;;;;4996467;28;20140;-58
2023/09/19 12:12:30;;;;;;;15.23;3.20;;;18.30;99.90;;;;;;5012245;28;20040;-58
2023/09/19 12:15:03;;;;;;;16.83;3.42;;;18.30;99.90;;;;;;5009231;28;20176;-58
2023/09/19 12:17:43;;;;;;;12.23;2.42;;;18.30;99.90;;;;;;5013083;28;20061;-57
2023/09/19 12:20:12;;;;;;;11.80;2.97;;;18.20;99.90;;;;;;5011239;28;20046;-57
2023/09/19 12:22:46;;;;;;;12.52;3.15;;;18.20;99.90;;;;;;5011466;28;20038;-58
2023/09/19 12:25:13;;;;;;;16.98;3.30;;;18.20;99.90;;;;;;5010702;28;20081;-55
2023/09/19 12:27:52;;;;;;;11.43;2.78;;;18.10;99.90;;;;;;5010986;28;20128;-57
2023/09/19 12:30:20;;;;;;;19.05;2.65;;;18.10;99.90;;;;;;5010027;28;20938;-58
2023/09/19 12:32:47;;;;;;;12.90;3.13;;;18.10;99.90;;;;;;4991327;28;20096;-56
2023/09/19 12:35:28;;;;;;;12.68;2.97;;;18.10;99.90;;;;;;5008426;28;20056;-55
2023/09/19 12:37:56;;;;;;;11.63;2.78;;;17.90;99.90;;;;;;5008060;28;20053;-58
2023/09/19 12:40:27;;;;;;;12.30;3.00;;;17.80;99.90;;;;;;4994959;28;20503;-58
2023/09/19 12:42:58;;;;;;;8.80;3.17;;;17.70;99.90;;;;;;5008237;28;20519;-55
2023/09/19 12:45:24;;;;;;;11.88;2.75;;;17.70;99.90;;;;;;5010119;28;20041;-58
2023/09/19 12:48:21;;;;;;;9.43;2.90;;;17.70;99.90;;;;;;5008236;28;20038;-57
2023/09/19 12:51:16;;;;;;;12.68;2.70;;;17.70;99.90;;;;;;4994734;28;20053;-55
2023/09/19 12:53:44;;;;;;;12.73;3.03;;;17.80;99.90;;;;;;5010821;28;20037;-56
2023/09/19 12:56:13;;;;;;;14.88;3.05;;;17.80;99.90;;;;;;5008260;28;20076;-58
2023/09/19 12:58:55;;;;;;;14.65;3.22;;;17.90;99.90;;;;;;5008253;28;20049;-56
2023/09/19 13:01:29;;;;;;;14.93;2.72;;;18.00;99.90;;;;;;5009712;28;20041;-57
2023/09/19 13:04:15;;;;;;;13.85;2.50;;;18.00;99.90;;;;;;5009197;28;20048;-58
2023/09/19 13:06:43;;;;;;;14.45;2.17;;;18.00;99.90;;;;;;5008974;28;20045;-57
2023/09/19 13:09:14;;;;;;;13.40;2.95;;;18.00;99.90;;;;;;5011738;28;20041;-58